Time;durP1;ratioP1;P1;durP2;ratioP2;P2;SDS_P1;SDS_P2;PMS_P1;PMS_P2;Temp;Humidity;BMP_temperature;BMP_pressure;BME280_temperature;BME280_humidity;BME280_pressure;Samples;Min_cycle;Max_cycle;Signal;HPM_P1;HPM_P2
2023/01/24 00:01:47;;;;;;;9.17;4.63;;;;;;;;;;5094038;28;20462;-79
2023/01/24 00:04:14;;;;;;;11.40;5.80;;;;;;;;;;5093756;28;20453;-82
2023/01/24 00:06:42;;;;;;;15.03;6.60;;;;;;;;;;5092560;28;20941;-81
2023/01/24 00:09:09;;;;;;;9.37;5.17;;;;;;;;;;5093045;28;20471;-81
2023/01/24 00:11:36;;;;;;;9.03;5.00;;;;;;;;;;5092838;28;20505;-82
2023/01/24 00:14:04;;;;;;;9.63;5.40;;;;;;;;;;5093095;28;20467;-82
2023/01/24 00:16:31;;;;;;;12.93;5.63;;;;;;;;;;5092651;28;20468;-81
2023/01/24 00:18:58;;;;;;;11.97;6.23;;;;;;;;;;5092650;28;20452;-81
2023/01/24 00:21:25;;;;;;;12.43;6.73;;;;;;;;;;5092283;28;20451;-80
2023/01/24 00:23:53;;;;;;;9.33;6.50;;;;;;;;;;5093423;28;20450;-81
2023/01/24 00:26:21;;;;;;;9.53;6.50;;;;;;;;;;5092782;28;20451;-81
2023/01/24 00:28:49;;;;;;;8.43;5.37;;;;;;;;;;5092600;28;20449;-77
2023/01/24 00:31:17;;;;;;;8.57;6.30;;;;;;;;;;5093212;28;20480;-81
2023/01/24 00:33:45;;;;;;;8.17;5.53;;;;;;;;;;5093201;28;20458;-81
2023/01/24 00:36:12;;;;;;;12.87;5.40;;;;;;;;;;5093098;28;20453;-82
2023/01/24 00:38:39;;;;;;;10.33;5.57;;;;;;;;;;5091763;28;20462;-82
2023/01/24 00:41:06;;;;;;;15.70;5.97;;;;;;;;;;5084870;28;20460;-82
2023/01/24 00:43:33;;;;;;;6.93;5.67;;;;;;;;;;5091042;28;20461;-82
2023/01/24 00:46:00;;;;;;;6.50;5.00;;;;;;;;;;5093238;28;20450;-81
2023/01/24 00:48:28;;;;;;;8.00;6.03;;;;;;;;;;5091636;28;20462;-81
2023/01/24 00:50:56;;;;;;;10.17;5.47;;;;;;;;;;5092922;28;20479;-81
2023/01/24 00:53:23;;;;;;;11.47;5.47;;;;;;;;;;5091764;28;20456;-81
2023/01/24 00:55:50;;;;;;;11.00;4.87;;;;;;;;;;5085206;28;20445;-81
2023/01/24 00:58:17;;;;;;;8.03;4.77;;;;;;;;;;5091723;28;20515;-78
2023/01/24 01:00:44;;;;;;;7.77;5.27;;;;;;;;;;5093000;28;20462;-82
2023/01/24 01:03:12;;;;;;;10.77;6.70;;;;;;;;;;5092695;28;20795;-82
2023/01/24 01:05:41;;;;;;;9.43;6.03;;;;;;;;;;5092300;28;20453;-82
2023/01/24 01:08:08;;;;;;;8.37;5.33;;;;;;;;;;5092175;28;20900;-83
2023/01/24 01:10:35;;;;;;;11.33;5.67;;;;;;;;;;5091704;28;20471;-82
2023/01/24 01:13:02;;;;;;;9.17;5.97;;;;;;;;;;5078745;28;20462;-82
2023/01/24 01:15:30;;;;;;;8.90;4.70;;;;;;;;;;5091499;28;20454;-82
2023/01/24 01:17:58;;;;;;;7.57;5.20;;;;;;;;;;5092088;28;20535;-82
2023/01/24 01:20:26;;;;;;;10.20;5.20;;;;;;;;;;5091575;28;20458;-83
2023/01/24 01:22:55;;;;;;;7.00;3.93;;;;;;;;;;5091987;28;20448;-83
2023/01/24 01:25:22;;;;;;;6.60;4.50;;;;;;;;;;5091830;28;20457;-82
2023/01/24 01:27:49;;;;;;;12.10;6.20;;;;;;;;;;5092351;28;20453;-81
2023/01/24 01:30:16;;;;;;;7.93;5.10;;;;;;;;;;5091903;28;20463;-83
2023/01/24 01:32:43;;;;;;;6.40;3.90;;;;;;;;;;5091047;28;20999;-82
2023/01/24 01:35:10;;;;;;;12.37;5.83;;;;;;;;;;5092302;28;20537;-82
2023/01/24 01:37:37;;;;;;;12.57;6.17;;;;;;;;;;5091181;28;20695;-82
2023/01/24 01:40:07;;;;;;;10.07;6.30;;;;;;;;;;5090709;28;20970;-82
2023/01/24 01:42:49;;;;;;;7.27;4.80;;;;;;;;;;5091507;28;20466;-82
2023/01/24 01:45:34;;;;;;;9.80;5.40;;;;;;;;;;5091826;28;20479;-82
2023/01/24 01:48:03;;;;;;;8.70;5.33;;;;;;;;;;5089470;28;20453;-82
2023/01/24 01:50:33;;;;;;;10.67;6.10;;;;;;;;;;5079815;28;20441;-82
2023/01/24 01:53:00;;;;;;;9.90;4.30;;;;;;;;;;5085165;28;20478;-82
2023/01/24 01:55:30;;;;;;;4.37;3.97;;;;;;;;;;5091094;28;20940;-82
2023/01/24 01:57:58;;;;;;;16.13;7.00;;;;;;;;;;5091499;28;20775;-82
2023/01/24 02:00:27;;;;;;;9.50;6.07;;;;;;;;;;5091452;28;20451;-82
2023/01/24 02:03:37;;;;;;;8.27;5.03;;;;;;;;;;5091387;28;20483;-82
2023/01/24 02:05:45;;;;;;;9.13;4.60;;;;;;;;;;5090970;28;20430;-81
2023/01/24 02:08:14;;;;;;;9.10;5.30;;;;;;;;;;5077592;28;20525;-82
2023/01/24 02:13:28;;;;;;;8.57;5.77;;;;;;;;;;5091087;28;20420;-82
2023/01/24 02:16:03;;;;;;;9.00;5.67;;;;;;;;;;5091601;28;20794;-82
2023/01/24 02:18:30;;;;;;;10.67;5.20;;;;;;;;;;5089666;28;20955;-82
2023/01/24 02:20:57;;;;;;;9.40;4.70;;;;;;;;;;5093453;28;20455;-81
2023/01/24 02:23:29;;;;;;;8.07;4.73;;;;;;;;;;5090725;28;20472;-82
2023/01/24 02:26:04;;;;;;;12.90;5.20;;;;;;;;;;5090703;28;20446;-81
2023/01/24 02:28:32;;;;;;;12.50;5.63;;;;;;;;;;5090068;28;20441;-81
2023/01/24 02:30:59;;;;;;;9.30;5.90;;;;;;;;;;5091237;28;20446;-80
2023/01/24 02:33:27;;;;;;;12.83;6.37;;;;;;;;;;5090055;28;20961;-81
2023/01/24 02:36:07;;;;;;;11.83;6.13;;;;;;;;;;5091358;28;20451;-81
2023/01/24 02:38:35;;;;;;;10.97;7.50;;;;;;;;;;5089432;28;20794;-81
2023/01/24 02:41:06;;;;;;;11.30;4.77;;;;;;;;;;5093443;28;20448;-81
2023/01/24 02:43:36;;;;;;;10.83;5.40;;;;;;;;;;5097266;28;20479;-81
2023/01/24 02:46:03;;;;;;;10.77;6.53;;;;;;;;;;5102876;28;20453;-81
2023/01/24 02:48:30;;;;;;;9.57;5.80;;;;;;;;;;5103192;28;20451;-80
2023/01/24 02:53:42;;;;;;;11.07;6.27;;;;;;;;;;5095414;28;20454;-81
2023/01/24 02:59:05;;;;;;;7.73;5.00;;;;;;;;;;5042241;28;20434;-80
2023/01/24 03:01:32;;;;;;;9.83;7.20;;;;;;;;;;5093369;28;20448;-80
2023/01/24 03:03:59;;;;;;;10.17;6.07;;;;;;;;;;5093370;28;20451;-80
2023/01/24 03:06:26;;;;;;;12.13;5.80;;;;;;;;;;5090628;28;20531;-80
2023/01/24 03:08:53;;;;;;;11.43;5.53;;;;;;;;;;5090595;28;20524;-81
2023/01/24 03:11:21;;;;;;;8.60;5.93;;;;;;;;;;5089575;28;20461;-81
2023/01/24 03:35:54;;;;;;;7.97;4.00;;;;;;;;;;5081623;28;20423;-80
2023/01/24 03:41:07;;;;;;;14.07;6.57;;;;;;;;;;5090988;28;20419;-82
2023/01/24 03:43:34;;;;;;;8.50;5.67;;;;;;;;;;5093559;28;20468;-80
2023/01/24 03:46:01;;;;;;;12.80;5.30;;;;;;;;;;5092782;28;20434;-81
2023/01/24 03:48:36;;;;;;;12.47;5.80;;;;;;;;;;5093070;28;20539;-81
2023/01/24 03:53:48;;;;;;;8.63;4.20;;;;;;;;;;5082597;28;20413;-79
2023/01/24 03:56:15;;;;;;;10.20;4.53;;;;;;;;;;5094316;28;20445;-81
2023/01/24 03:58:42;;;;;;;9.80;5.80;;;;;;;;;;5084369;28;20445;-77
2023/01/24 04:01:09;;;;;;;10.30;4.90;;;;;;;;;;5089840;28;20471;-81
2023/01/24 04:03:38;;;;;;;11.93;6.87;;;;;;;;;;5093633;28;20445;-82
2023/01/24 04:06:05;;;;;;;8.70;6.10;;;;;;;;;;5102778;28;20454;-81
2023/01/24 04:08:32;;;;;;;7.67;5.17;;;;;;;;;;5110764;28;20449;-81
2023/01/24 04:10:59;;;;;;;14.07;6.03;;;;;;;;;;5102622;28;20447;-81
2023/01/24 04:13:26;;;;;;;14.90;7.90;;;;;;;;;;5093618;28;20564;-81
2023/01/24 04:15:53;;;;;;;12.03;6.33;;;;;;;;;;5093720;28;20445;-81
2023/01/24 04:18:20;;;;;;;11.13;6.90;;;;;;;;;;5092660;28;20457;-81
2023/01/24 04:20:49;;;;;;;10.03;6.70;;;;;;;;;;5093872;28;20440;-81
2023/01/24 04:23:16;;;;;;;8.13;4.33;;;;;;;;;;5093420;28;20464;-81
2023/01/24 04:25:43;;;;;;;11.63;6.63;;;;;;;;;;5093680;28;20799;-81
2023/01/24 04:28:10;;;;;;;14.13;7.20;;;;;;;;;;5092957;28;20444;-81
2023/01/24 04:30:37;;;;;;;11.53;7.33;;;;;;;;;;5092800;28;20953;-81
2023/01/24 04:33:04;;;;;;;11.90;6.87;;;;;;;;;;5093480;28;20840;-82
2023/01/24 04:35:31;;;;;;;9.07;4.93;;;;;;;;;;5092096;28;20451;-82
2023/01/24 04:38:00;;;;;;;10.77;5.90;;;;;;;;;;5092652;28;20459;-82
2023/01/24 04:40:28;;;;;;;10.03;4.50;;;;;;;;;;5092539;28;20851;-82
2023/01/24 04:42:56;;;;;;;12.53;6.03;;;;;;;;;;5090654;28;20466;-81
2023/01/24 04:45:24;;;;;;;8.47;6.50;;;;;;;;;;5079440;28;20482;-81
2023/01/24 04:47:51;;;;;;;11.80;6.30;;;;;;;;;;5090102;28;20797;-81
2023/01/24 04:50:18;;;;;;;10.37;5.53;;;;;;;;;;5092649;28;20475;-70
2023/01/24 04:52:45;;;;;;;10.80;6.47;;;;;;;;;;5092610;28;20485;-81
2023/01/24 04:55:13;;;;;;;9.13;6.00;;;;;;;;;;5092950;28;20444;-81
2023/01/24 04:57:41;;;;;;;9.30;4.20;;;;;;;;;;5090189;28;20450;-81
2023/01/24 05:00:09;;;;;;;11.17;5.80;;;;;;;;;;5092932;28;20921;-82
2023/01/24 05:02:37;;;;;;;12.10;5.03;;;;;;;;;;5092162;28;20449;-82
2023/01/24 05:05:04;;;;;;;12.97;5.97;;;;;;;;;;5092819;28;20817;-82
2023/01/24 05:07:31;;;;;;;11.63;5.07;;;;;;;;;;5091998;28;20468;-77
2023/01/24 05:09:58;;;;;;;10.37;5.70;;;;;;;;;;5092005;28;20455;-81
2023/01/24 05:12:27;;;;;;;7.00;4.73;;;;;;;;;;5091776;28;20483;-80
2023/01/24 05:14:54;;;;;;;12.43;6.20;;;;;;;;;;5092596;28;20461;-83
2023/01/24 05:17:21;;;;;;;10.67;6.20;;;;;;;;;;5091428;28;20453;-82
2023/01/24 05:19:48;;;;;;;15.53;5.67;;;;;;;;;;5091936;28;20454;-77
2023/01/24 05:22:15;;;;;;;7.10;5.47;;;;;;;;;;5091911;28;20457;-81
2023/01/24 05:24:42;;;;;;;10.20;6.20;;;;;;;;;;5090321;28;20451;-82
2023/01/24 05:27:09;;;;;;;10.40;5.33;;;;;;;;;;5092170;28;20443;-82
2023/01/24 05:29:38;;;;;;;8.67;5.40;;;;;;;;;;5091017;28;20523;-82
2023/01/24 05:32:05;;;;;;;10.60;6.27;;;;;;;;;;5092144;28;20482;-82
2023/01/24 05:34:32;;;;;;;12.40;6.50;;;;;;;;;;5089465;28;20449;-82
2023/01/24 05:36:59;;;;;;;10.63;6.10;;;;;;;;;;5089203;28;20444;-82
2023/01/24 05:39:26;;;;;;;14.63;7.03;;;;;;;;;;5091033;28;20457;-81
2023/01/24 05:41:53;;;;;;;9.33;5.70;;;;;;;;;;5090072;28;20453;-74
2023/01/24 05:44:20;;;;;;;13.67;7.27;;;;;;;;;;5089839;28;20491;-83
2023/01/24 05:46:49;;;;;;;16.47;6.77;;;;;;;;;;5091847;28;20817;-78
2023/01/24 05:49:16;;;;;;;9.23;5.70;;;;;;;;;;5091250;28;20446;-81
2023/01/24 05:51:43;;;;;;;14.30;5.40;;;;;;;;;;5092107;28;20502;-81
2023/01/24 05:54:10;;;;;;;10.90;6.83;;;;;;;;;;5091421;28;20478;-80
2023/01/24 05:56:37;;;;;;;10.10;6.70;;;;;;;;;;5090500;28;20827;-79
2023/01/24 05:59:04;;;;;;;10.73;5.53;;;;;;;;;;5091081;28;20450;-80
2023/01/24 06:01:32;;;;;;;9.70;5.07;;;;;;;;;;5091101;28;20444;-78
2023/01/24 06:04:00;;;;;;;12.87;6.67;;;;;;;;;;5081615;28;20453;-81
2023/01/24 06:06:27;;;;;;;6.70;4.87;;;;;;;;;;5087863;28;20801;-76
2023/01/24 06:08:54;;;;;;;10.23;6.27;;;;;;;;;;5091027;28;20448;-77
2023/01/24 06:11:23;;;;;;;17.93;7.10;;;;;;;;;;5090000;28;20448;-81
2023/01/24 06:13:50;;;;;;;11.87;6.80;;;;;;;;;;5091707;28;20480;-81
2023/01/24 06:16:18;;;;;;;10.63;6.73;;;;;;;;;;5088128;28;20445;-81
2023/01/24 06:18:45;;;;;;;7.27;5.30;;;;;;;;;;5089842;28;20449;-77
2023/01/24 06:21:20;;;;;;;11.17;6.10;;;;;;;;;;5091899;28;20808;-77
2023/01/24 06:23:47;;;;;;;7.40;5.23;;;;;;;;;;5091347;28;20456;-77
2023/01/24 06:26:14;;;;;;;9.37;5.57;;;;;;;;;;5091522;28;20449;-73
2023/01/24 06:28:42;;;;;;;9.37;4.90;;;;;;;;;;5089684;28;20441;-75
2023/01/24 06:31:15;;;;;;;17.80;6.40;;;;;;;;;;5090965;28;20464;-75
2023/01/24 06:33:44;;;;;;;8.67;4.57;;;;;;;;;;5090534;28;20468;-76
2023/01/24 06:36:16;;;;;;;10.10;4.60;;;;;;;;;;5091443;28;20799;-75
2023/01/24 06:38:45;;;;;;;7.10;5.67;;;;;;;;;;5090236;28;20554;-75
2023/01/24 06:41:15;;;;;;;11.07;5.27;;;;;;;;;;5091156;28;20531;-75
2023/01/24 06:43:43;;;;;;;13.33;6.77;;;;;;;;;;5090178;28;20448;-75
2023/01/24 06:46:10;;;;;;;18.40;7.97;;;;;;;;;;5091416;28;20449;-76
2023/01/24 06:48:37;;;;;;;11.97;6.00;;;;;;;;;;5090237;28;20537;-75
2023/01/24 06:51:04;;;;;;;11.73;6.30;;;;;;;;;;5091012;28;20448;-75
2023/01/24 06:53:33;;;;;;;10.13;6.00;;;;;;;;;;5092902;28;20485;-75
2023/01/24 06:56:01;;;;;;;15.63;7.93;;;;;;;;;;5095324;28;20469;-75
2023/01/24 06:58:28;;;;;;;10.53;6.20;;;;;;;;;;5080905;28;20459;-75
2023/01/24 07:00:55;;;;;;;12.30;6.00;;;;;;;;;;5094911;28;20454;-72
2023/01/24 07:03:22;;;;;;;11.70;6.50;;;;;;;;;;5094931;28;20808;-75
2023/01/24 07:05:49;;;;;;;12.50;6.70;;;;;;;;;;5095200;28;20452;-74
2023/01/24 07:08:20;;;;;;;8.50;5.03;;;;;;;;;;5094733;28;20464;-76
2023/01/24 07:10:47;;;;;;;11.23;6.10;;;;;;;;;;5095150;28;20441;-75
2023/01/24 07:13:16;;;;;;;18.50;7.10;;;;;;;;;;5095351;28;20842;-75
2023/01/24 07:15:43;;;;;;;11.07;6.30;;;;;;;;;;5094990;28;20809;-75
2023/01/24 07:18:12;;;;;;;13.50;5.93;;;;;;;;;;5094552;28;20451;-75
2023/01/24 07:20:40;;;;;;;10.40;5.10;;;;;;;;;;5094139;28;20824;-75
2023/01/24 07:23:10;;;;;;;14.93;7.90;;;;;;;;;;5094675;28;20449;-75
2023/01/24 07:25:38;;;;;;;10.20;6.07;;;;;;;;;;5094164;28;20673;-75
2023/01/24 07:28:06;;;;;;;12.57;8.03;;;;;;;;;;5094322;28;20453;-75
2023/01/24 07:30:34;;;;;;;8.13;5.47;;;;;;;;;;5093915;28;20452;-75
2023/01/24 07:33:01;;;;;;;11.03;7.10;;;;;;;;;;5094565;28;20847;-76
2023/01/24 07:35:29;;;;;;;13.17;7.60;;;;;;;;;;5093842;28;20449;-75
2023/01/24 07:37:56;;;;;;;10.13;6.33;;;;;;;;;;5094094;28;20456;-75
2023/01/24 07:40:23;;;;;;;10.80;5.47;;;;;;;;;;5094002;28;20799;-75
2023/01/24 07:42:50;;;;;;;10.27;7.27;;;;;;;;;;5094457;28;20473;-76
2023/01/24 07:45:20;;;;;;;8.30;6.90;;;;;;;;;;5095871;28;20483;-76
2023/01/24 07:47:48;;;;;;;11.23;5.97;;;;;;;;;;5096772;28;20457;-76
2023/01/24 07:50:15;;;;;;;9.20;5.80;;;;;;;;;;5098369;28;20469;-76
2023/01/24 07:52:42;;;;;;;6.90;5.27;;;;;;;;;;5100793;28;20939;-76
2023/01/24 07:55:10;;;;;;;14.60;7.90;;;;;;;;;;5102653;28;20458;-75
2023/01/24 07:57:37;;;;;;;12.27;5.90;;;;;;;;;;5105401;28;20437;-71
2023/01/24 08:00:05;;;;;;;8.30;5.33;;;;;;;;;;5105326;28;20458;-75
2023/01/24 08:02:32;;;;;;;13.57;5.90;;;;;;;;;;5106038;28;20480;-76
2023/01/24 08:05:00;;;;;;;10.40;4.80;;;;;;;;;;5106927;28;20449;-75
2023/01/24 08:07:27;;;;;;;35.50;7.67;;;;;;;;;;5105790;28;20935;-74
2023/01/24 08:09:54;;;;;;;8.53;4.67;;;;;;;;;;5106791;28;20523;-75
2023/01/24 08:12:22;;;;;;;9.77;5.57;;;;;;;;;;5096013;28;20449;-75
2023/01/24 08:14:49;;;;;;;12.10;6.27;;;;;;;;;;5095052;28;20480;-74
2023/01/24 08:17:16;;;;;;;15.93;6.73;;;;;;;;;;5094150;28;20449;-76
2023/01/24 08:19:44;;;;;;;16.83;5.70;;;;;;;;;;5094246;28;20805;-75
2023/01/24 08:22:12;;;;;;;10.17;5.47;;;;;;;;;;5093905;28;20477;-75
2023/01/24 08:24:39;;;;;;;15.93;5.37;;;;;;;;;;5093225;28;20447;-74
2023/01/24 08:27:06;;;;;;;9.03;6.77;;;;;;;;;;5093176;28;20442;-75
2023/01/24 08:29:34;;;;;;;8.20;5.07;;;;;;;;;;5092942;28;20449;-76
2023/01/24 08:32:01;;;;;;;10.10;5.57;;;;;;;;;;5093251;28;20947;-74
2023/01/24 08:34:28;;;;;;;9.50;6.50;;;;;;;;;;5092844;28;20483;-75
2023/01/24 08:36:55;;;;;;;9.67;6.73;;;;;;;;;;5093074;28;20446;-74
2023/01/24 08:39:24;;;;;;;13.13;6.90;;;;;;;;;;5092423;28;20451;-74
2023/01/24 08:41:51;;;;;;;10.47;6.33;;;;;;;;;;5092922;28;20485;-76
2023/01/24 08:44:18;;;;;;;14.07;7.23;;;;;;;;;;5093030;28;20479;-68
2023/01/24 08:46:45;;;;;;;9.30;6.87;;;;;;;;;;5092937;28;20816;-75
2023/01/24 08:49:12;;;;;;;10.07;6.50;;;;;;;;;;5092868;28;20449;-75
2023/01/24 08:51:40;;;;;;;15.93;6.13;;;;;;;;;;5092463;28;20801;-75
2023/01/24 08:54:07;;;;;;;10.37;4.60;;;;;;;;;;5092670;28;20600;-75
2023/01/24 08:56:36;;;;;;;10.93;6.20;;;;;;;;;;5091958;28;20458;-75
2023/01/24 08:59:03;;;;;;;7.90;5.30;;;;;;;;;;5092782;28;20453;-76
2023/01/24 09:01:31;;;;;;;10.10;6.07;;;;;;;;;;5092222;28;20786;-75
2023/01/24 09:03:59;;;;;;;10.77;5.93;;;;;;;;;;5092815;28;20460;-75
2023/01/24 09:06:26;;;;;;;12.17;5.77;;;;;;;;;;5091457;28;21008;-75
2023/01/24 09:08:54;;;;;;;7.47;6.53;;;;;;;;;;5092760;28;20442;-75
2023/01/24 09:11:21;;;;;;;9.87;6.03;;;;;;;;;;5091856;28;20498;-75
2023/01/24 09:13:50;;;;;;;8.80;5.90;;;;;;;;;;5092358;28;20481;-72
2023/01/24 09:16:17;;;;;;;14.90;7.50;;;;;;;;;;5077948;28;20447;-76
2023/01/24 09:18:44;;;;;;;11.57;6.57;;;;;;;;;;5092659;28;20451;-76
2023/01/24 09:21:11;;;;;;;9.20;5.10;;;;;;;;;;5092331;28;20443;-76
2023/01/24 09:23:38;;;;;;;12.00;5.60;;;;;;;;;;5091752;28;20453;-76
2023/01/24 09:26:06;;;;;;;10.13;6.20;;;;;;;;;;5092135;28;20453;-74
2023/01/24 09:28:33;;;;;;;7.27;5.50;;;;;;;;;;5091897;28;20815;-77
2023/01/24 09:31:02;;;;;;;13.57;6.27;;;;;;;;;;5092528;28;20444;-77
2023/01/24 09:33:29;;;;;;;11.27;4.90;;;;;;;;;;5091607;28;20476;-77
2023/01/24 09:35:57;;;;;;;10.00;4.40;;;;;;;;;;5092414;28;20449;-76
2023/01/24 09:38:26;;;;;;;9.33;6.73;;;;;;;;;;5091135;28;20449;-77
2023/01/24 09:40:56;;;;;;;11.87;6.40;;;;;;;;;;5092356;28;20478;-77
2023/01/24 09:43:36;;;;;;;9.33;5.43;;;;;;;;;;5091923;28;20465;-77
2023/01/24 09:46:08;;;;;;;9.13;5.17;;;;;;;;;;5091681;28;20931;-74
2023/01/24 09:48:35;;;;;;;13.93;7.33;;;;;;;;;;5091452;28;20803;-77
2023/01/24 09:51:04;;;;;;;13.83;6.20;;;;;;;;;;5092104;28;20449;-77
2023/01/24 09:53:33;;;;;;;10.33;5.40;;;;;;;;;;5091111;28;20514;-77
2023/01/24 09:56:01;;;;;;;8.50;6.20;;;;;;;;;;5091518;28;20928;-76
2023/01/24 09:58:31;;;;;;;12.27;5.30;;;;;;;;;;5091449;28;20803;-77
2023/01/24 10:01:00;;;;;;;7.10;4.03;;;;;;;;;;5091805;28;20486;-77
2023/01/24 10:03:29;;;;;;;7.33;5.30;;;;;;;;;;5091121;28;20456;-77
2023/01/24 10:05:57;;;;;;;9.97;5.30;;;;;;;;;;5091727;28;20484;-77
2023/01/24 10:08:30;;;;;;;8.63;5.20;;;;;;;;;;5090388;28;20454;-77
2023/01/24 10:11:02;;;;;;;7.73;5.47;;;;;;;;;;5091586;28;20455;-76
2023/01/24 10:13:36;;;;;;;8.63;4.20;;;;;;;;;;5090832;28;20441;-77
2023/01/24 10:16:10;;;;;;;8.23;5.10;;;;;;;;;;5091064;28;20454;-77
2023/01/24 10:18:44;;;;;;;6.23;4.10;;;;;;;;;;5090750;28;20441;-77
2023/01/24 10:21:19;;;;;;;13.33;5.50;;;;;;;;;;5079045;28;20436;-77
2023/01/24 10:23:50;;;;;;;8.23;4.07;;;;;;;;;;5091573;28;20451;-77
2023/01/24 10:26:19;;;;;;;9.60;4.90;;;;;;;;;;5090901;28;20445;-75
2023/01/24 10:28:48;;;;;;;7.87;4.93;;;;;;;;;;5091343;28;20445;-78
2023/01/24 10:31:18;;;;;;;8.70;4.60;;;;;;;;;;5091363;28;20452;-77
2023/01/24 10:33:48;;;;;;;8.50;4.60;;;;;;;;;;5091136;28;20481;-77
2023/01/24 10:36:18;;;;;;;9.43;4.80;;;;;;;;;;5091184;28;20444;-77
2023/01/24 10:38:45;;;;;;;10.93;6.00;;;;;;;;;;5091489;28;20488;-77
2023/01/24 10:41:18;;;;;;;6.83;4.10;;;;;;;;;;5091030;28;20460;-77
2023/01/24 10:43:46;;;;;;;8.80;5.07;;;;;;;;;;5091217;28;20501;-77
2023/01/24 10:46:20;;;;;;;8.93;4.70;;;;;;;;;;5091233;28;20446;-78
2023/01/24 10:48:51;;;;;;;11.27;5.10;;;;;;;;;;5085842;28;21226;-77
2023/01/24 10:51:19;;;;;;;8.23;5.10;;;;;;;;;;5090485;28;20931;-71
2023/01/24 10:53:46;;;;;;;11.50;5.67;;;;;;;;;;5091145;28;20513;-77
2023/01/24 10:56:14;;;;;;;5.83;3.63;;;;;;;;;;5090658;28;20455;-77
2023/01/24 10:58:43;;;;;;;10.47;4.10;;;;;;;;;;5090439;28;20460;-77
2023/01/24 11:01:18;;;;;;;6.27;4.30;;;;;;;;;;5091229;28;20447;-77
2023/01/24 11:03:45;;;;;;;5.60;3.70;;;;;;;;;;5091509;28;20528;-76
2023/01/24 11:06:30;;;;;;;10.83;4.17;;;;;;;;;;5090631;28;20446;-77
2023/01/24 11:09:02;;;;;;;8.93;4.27;;;;;;;;;;5090546;28;20966;-75
2023/01/24 11:11:30;;;;;;;7.60;4.93;;;;;;;;;;5090250;28;20467;-76
2023/01/24 11:13:58;;;;;;;8.37;5.53;;;;;;;;;;5090570;28;20549;-76
2023/01/24 11:16:28;;;;;;;8.93;5.13;;;;;;;;;;5090180;28;20446;-75
2023/01/24 11:18:57;;;;;;;7.23;5.73;;;;;;;;;;5090931;28;20436;-76
2023/01/24 11:21:25;;;;;;;10.87;4.77;;;;;;;;;;5090149;28;20462;-76
2023/01/24 11:24:02;;;;;;;9.80;4.70;;;;;;;;;;5090877;28;20445;-77
2023/01/24 11:26:29;;;;;;;9.03;5.03;;;;;;;;;;5090038;28;20440;-77
2023/01/24 11:28:58;;;;;;;5.57;3.93;;;;;;;;;;5090595;28;20451;-76
2023/01/24 11:31:28;;;;;;;15.97;4.63;;;;;;;;;;5090365;28;20456;-77
2023/01/24 11:34:01;;;;;;;6.30;4.53;;;;;;;;;;5090596;28;20446;-77
2023/01/24 11:36:37;;;;;;;9.47;4.90;;;;;;;;;;5089667;28;20926;-77
2023/01/24 11:39:11;;;;;;;12.30;4.53;;;;;;;;;;5080117;28;20799;-77
2023/01/24 11:41:44;;;;;;;8.77;4.73;;;;;;;;;;5093952;28;20703;-77
2023/01/24 11:44:37;;;;;;;7.40;4.53;;;;;;;;;;5094573;28;20479;-77
2023/01/24 11:47:09;;;;;;;8.47;4.13;;;;;;;;;;5080627;28;20467;-75
2023/01/24 11:49:51;;;;;;;4.90;4.00;;;;;;;;;;5093776;28;20460;-76
2023/01/24 11:52:40;;;;;;;9.13;4.20;;;;;;;;;;5091080;28;20860;-73
2023/01/24 11:55:14;;;;;;;5.97;3.83;;;;;;;;;;5087909;28;20534;-76
2023/01/24 11:57:45;;;;;;;8.73;4.67;;;;;;;;;;5093316;28;20444;-77
2023/01/24 12:00:20;;;;;;;10.03;5.40;;;;;;;;;;5094336;28;20470;-76
2023/01/24 12:02:59;;;;;;;7.50;5.00;;;;;;;;;;5094184;28;20900;-76
2023/01/24 12:05:33;;;;;;;7.20;5.07;;;;;;;;;;5093246;28;20937;-75
2023/01/24 12:08:07;;;;;;;7.93;4.20;;;;;;;;;;5093404;28;20923;-77
2023/01/24 12:10:44;;;;;;;7.93;3.57;;;;;;;;;;5093335;28;20463;-75
2023/01/24 12:13:16;;;;;;;8.73;5.50;;;;;;;;;;5094182;28;20480;-76
2023/01/24 12:15:53;;;;;;;7.87;5.47;;;;;;;;;;5093936;28;20572;-77
2023/01/24 12:18:28;;;;;;;4.70;3.53;;;;;;;;;;5093317;28;20462;-77
2023/01/24 12:21:00;;;;;;;7.10;3.10;;;;;;;;;;5093759;28;20444;-77
2023/01/24 12:23:29;;;;;;;7.63;4.83;;;;;;;;;;5093090;28;20449;-76
2023/01/24 12:25:59;;;;;;;6.90;4.30;;;;;;;;;;5079983;28;20444;-76
2023/01/24 12:28:29;;;;;;;8.23;5.23;;;;;;;;;;5093068;28;20441;-77
2023/01/24 12:30:58;;;;;;;5.60;3.53;;;;;;;;;;5093834;28;20470;-75
2023/01/24 12:33:29;;;;;;;9.13;4.00;;;;;;;;;;5093009;28;20458;-77
2023/01/24 12:35:59;;;;;;;7.67;4.47;;;;;;;;;;5093271;28;20563;-75
2023/01/24 12:38:29;;;;;;;5.87;4.47;;;;;;;;;;5092838;28;20456;-76
2023/01/24 12:41:01;;;;;;;8.50;5.30;;;;;;;;;;5093616;28;20440;-76
2023/01/24 12:43:33;;;;;;;9.93;5.23;;;;;;;;;;5092725;28;20542;-75
2023/01/24 12:46:04;;;;;;;8.87;4.10;;;;;;;;;;5092993;28;20448;-76
2023/01/24 12:48:35;;;;;;;6.40;4.40;;;;;;;;;;5092360;28;20946;-76
2023/01/24 12:51:08;;;;;;;7.30;4.30;;;;;;;;;;5092044;28;20443;-77
2023/01/24 12:53:39;;;;;;;10.00;5.23;;;;;;;;;;5079526;28;20938;-76
2023/01/24 12:56:12;;;;;;;6.30;3.77;;;;;;;;;;5092315;28;20967;-76
2023/01/24 12:58:41;;;;;;;5.17;3.67;;;;;;;;;;5092341;28;20447;-77
2023/01/24 13:01:15;;;;;;;9.87;5.13;;;;;;;;;;5092612;28;20934;-76
2023/01/24 13:03:49;;;;;;;9.23;4.80;;;;;;;;;;5092178;28;20448;-77
2023/01/24 13:06:21;;;;;;;10.27;4.20;;;;;;;;;;5092593;28;20448;-76
2023/01/24 13:08:50;;;;;;;9.20;4.37;;;;;;;;;;5092835;28;20456;-73
2023/01/24 13:11:21;;;;;;;4.63;3.50;;;;;;;;;;5092748;28;20459;-69
2023/01/24 13:13:53;;;;;;;8.53;5.10;;;;;;;;;;5092873;28;20793;-74
2023/01/24 13:16:31;;;;;;;7.93;4.50;;;;;;;;;;5078713;28;20510;-76
2023/01/24 13:19:02;;;;;;;6.77;4.53;;;;;;;;;;5092612;28;20447;-75
2023/01/24 13:21:34;;;;;;;8.27;5.27;;;;;;;;;;5092050;28;20448;-75
2023/01/24 13:24:13;;;;;;;8.67;5.20;;;;;;;;;;5092343;28;20924;-76
2023/01/24 13:26:57;;;;;;;6.00;3.77;;;;;;;;;;5091214;28;20443;-76
2023/01/24 13:29:36;;;;;;;5.90;3.90;;;;;;;;;;5091928;28;20951;-76
2023/01/24 13:32:07;;;;;;;7.93;4.53;;;;;;;;;;5092263;28;20452;-77
2023/01/24 13:34:36;;;;;;;8.70;3.87;;;;;;;;;;5092433;28;20488;-77
2023/01/24 13:37:03;;;;;;;8.90;4.63;;;;;;;;;;5093753;28;20456;-77
2023/01/24 13:39:32;;;;;;;6.67;3.17;;;;;;;;;;5094750;28;20453;-77
2023/01/24 13:42:03;;;;;;;5.03;3.63;;;;;;;;;;5099916;28;20460;-75
2023/01/24 13:44:35;;;;;;;8.30;4.70;;;;;;;;;;5105702;28;20478;-76
2023/01/24 13:47:22;;;;;;;6.80;3.93;;;;;;;;;;5089352;28;20457;-76
2023/01/24 13:50:08;;;;;;;4.70;3.40;;;;;;;;;;5102923;28;20447;-76
2023/01/24 13:52:37;;;;;;;11.13;4.93;;;;;;;;;;5102202;28;20442;-76
2023/01/24 13:55:05;;;;;;;5.87;3.83;;;;;;;;;;5102206;28;20482;-76
2023/01/24 13:57:34;;;;;;;4.83;3.73;;;;;;;;;;5095242;28;20452;-76
2023/01/24 14:00:19;;;;;;;11.27;4.50;;;;;;;;;;5092651;28;20463;-77
2023/01/24 14:03:01;;;;;;;8.63;4.50;;;;;;;;;;5092047;28;20473;-75
2023/01/24 14:05:35;;;;;;;7.27;3.70;;;;;;;;;;5091218;28;20960;-76
2023/01/24 14:08:04;;;;;;;6.67;4.03;;;;;;;;;;5091703;28;20446;-77
2023/01/24 14:10:34;;;;;;;8.10;5.47;;;;;;;;;;5090799;28;20447;-76
2023/01/24 14:13:01;;;;;;;8.73;3.97;;;;;;;;;;5091868;28;20479;-76
2023/01/24 14:15:29;;;;;;;7.03;4.23;;;;;;;;;;5090675;28;20526;-76
2023/01/24 14:17:56;;;;;;;5.23;3.80;;;;;;;;;;5090917;28;20995;-76
2023/01/24 14:20:31;;;;;;;5.20;3.37;;;;;;;;;;5091007;28;20449;-77
2023/01/24 14:23:00;;;;;;;4.33;3.43;;;;;;;;;;5091275;28;20436;-76
2023/01/24 14:25:36;;;;;;;5.03;3.27;;;;;;;;;;5090720;28;20447;-75
2023/01/24 14:28:03;;;;;;;5.90;4.43;;;;;;;;;;5091285;28;20455;-79
2023/01/24 14:30:36;;;;;;;6.67;4.10;;;;;;;;;;5090817;28;20448;-76
2023/01/24 14:33:06;;;;;;;4.93;3.97;;;;;;;;;;5091486;28;20448;-76
2023/01/24 14:35:37;;;;;;;5.20;3.70;;;;;;;;;;5090678;28;20534;-74
2023/01/24 14:38:14;;;;;;;5.50;4.53;;;;;;;;;;5090986;28;20451;-77
2023/01/24 14:40:42;;;;;;;5.97;3.43;;;;;;;;;;5078374;28;20805;-76
2023/01/24 14:43:10;;;;;;;7.97;5.20;;;;;;;;;;5091513;28;20688;-77
2023/01/24 14:45:38;;;;;;;4.93;3.50;;;;;;;;;;5090454;28;20851;-77
2023/01/24 14:48:08;;;;;;;11.33;5.73;;;;;;;;;;5091089;28;20458;-77
2023/01/24 14:50:37;;;;;;;4.83;3.83;;;;;;;;;;5090751;28;20451;-77
2023/01/24 14:53:23;;;;;;;4.73;3.40;;;;;;;;;;5090906;28;20463;-76
2023/01/24 14:55:51;;;;;;;6.93;4.70;;;;;;;;;;5090687;28;20486;-76
2023/01/24 14:58:21;;;;;;;8.30;4.00;;;;;;;;;;5091214;28;20462;-69
2023/01/24 15:00:48;;;;;;;6.67;4.47;;;;;;;;;;5090961;28;20428;-74
2023/01/24 15:03:18;;;;;;;8.00;4.07;;;;;;;;;;5091127;28;20815;-76
2023/01/24 15:05:52;;;;;;;12.70;4.00;;;;;;;;;;5090536;28;20461;-73
2023/01/24 15:08:19;;;;;;;8.43;4.27;;;;;;;;;;5078277;28;20454;-74
2023/01/24 15:10:47;;;;;;;6.53;4.33;;;;;;;;;;5091120;28;20890;-76
2023/01/24 15:13:19;;;;;;;7.93;5.80;;;;;;;;;;5091030;28;20946;-76
2023/01/24 15:15:47;;;;;;;10.27;4.10;;;;;;;;;;5094771;28;20799;-76
2023/01/24 15:18:25;;;;;;;8.50;4.40;;;;;;;;;;5095076;28;20451;-76
2023/01/24 15:20:54;;;;;;;7.00;4.30;;;;;;;;;;5094906;28;20440;-76
2023/01/24 15:23:22;;;;;;;11.73;5.50;;;;;;;;;;5094431;28;20456;-76
2023/01/24 15:25:50;;;;;;;5.90;4.57;;;;;;;;;;5094148;28;20454;-76
2023/01/24 15:28:22;;;;;;;10.20;5.80;;;;;;;;;;5094431;28;20456;-76